<?xml version='1.0' encoding='UTF-8'?><gpx version="1.1" creator="JPX - https://github.com/jenetics/jpx" xmlns="http://www.topografix.com/GPX/1/1"><trk><trkseg><trkpt lat="44.3405311" lon="7.4394203"><ele>650.0</ele><time>2026-04-10T11:17:50.027Z</time></trkpt><trkpt lat="44.340518" lon="7.4395241"><ele>650.0</ele><time>2026-04-10T11:17:51.027Z</time></trkpt><trkpt lat="44.3404994" lon="7.4396308"><ele>650.0</ele><time>2026-04-10T11:17:52.032Z</time></trkpt><trkpt lat="44.3404905" lon="7.439741"><ele>650.0</ele><time>2026-04-10T11:17:53.032Z</time></trkpt><trkpt lat="44.3404745" lon="7.4398418"><ele>650.0</ele><time>2026-04-10T11:17:54.026Z</time></trkpt><trkpt lat="44.3404693" lon="7.4399564"><ele>650.0</ele><time>2026-04-10T11:17:55.035Z</time></trkpt><trkpt lat="44.3404481" lon="7.4400646"><ele>649.6666666666666</ele><time>2026-04-10T11:17:56.035Z</time></trkpt><trkpt lat="44.340422" lon="7.4401718"><ele>649.3333333333333</ele><time>2026-04-10T11:17:57.027Z</time></trkpt><trkpt lat="44.3403827" lon="7.4402668"><ele>649.0</ele><time>2026-04-10T11:17:58.026Z</time></trkpt><trkpt lat="44.3403472" lon="7.4403624"><ele>648.6666666666666</ele><time>2026-04-10T11:17:59.026Z</time></trkpt><trkpt lat="44.3403105" lon="7.4404513"><ele>648.3333333333334</ele><time>2026-04-10T11:18:00.049Z</time></trkpt><trkpt lat="44.3402601" lon="7.4405375"><ele>648.0</ele><time>2026-04-10T11:18:01.025Z</time></trkpt><trkpt lat="44.3401937" lon="7.4406199"><ele>646.0</ele><time>2026-04-10T11:18:02.026Z</time></trkpt><trkpt lat="44.3401066" lon="7.4406959"><ele>644.0</ele><time>2026-04-10T11:18:03.029Z</time></trkpt><trkpt lat="44.3400102" lon="7.4407628"><ele>642.0</ele><time>2026-04-10T11:18:04.026Z</time></trkpt><trkpt lat="44.3399065" lon="7.4407862"><ele>640.0</ele><time>2026-04-10T11:18:05.034Z</time></trkpt><trkpt lat="44.339807" lon="7.4408019"><ele>638.0</ele><time>2026-04-10T11:18:06.036Z</time></trkpt><trkpt lat="44.3397215" lon="7.440802"><ele>640.5</ele><time>2026-04-10T11:18:07.028Z</time></trkpt><trkpt lat="44.3396409" lon="7.4407773"><ele>643.0</ele><time>2026-04-10T11:18:08.033Z</time></trkpt><trkpt lat="44.3395449" lon="7.4407111"><ele>645.5</ele><time>2026-04-10T11:18:09.024Z</time></trkpt><trkpt lat="44.3394088" lon="7.440602"><ele>648.0</ele><time>2026-04-10T11:18:10.025Z</time></trkpt><trkpt lat="44.3392751" lon="7.4405295"><ele>648.0</ele><time>2026-04-10T11:18:11.029Z</time></trkpt><trkpt lat="44.339185" lon="7.4404851"><ele>648.0</ele><time>2026-04-10T11:18:12.032Z</time></trkpt><trkpt lat="44.3391191" lon="7.4404617"><ele>648.0</ele><time>2026-04-10T11:18:13.025Z</time></trkpt><trkpt lat="44.3390094" lon="7.4404437"><ele>648.0</ele><time>2026-04-10T11:18:15.032Z</time></trkpt><trkpt lat="44.3388879" lon="7.440481"><ele>648.0</ele><time>2026-04-10T11:18:17.032Z</time></trkpt><trkpt lat="44.3388181" lon="7.4405663"><ele>649.5</ele><time>2026-04-10T11:18:18.037Z</time></trkpt><trkpt lat="44.3387524" lon="7.440688"><ele>651.0</ele><time>2026-04-10T11:18:19.031Z</time></trkpt><trkpt lat="44.3387004" lon="7.4408465"><ele>652.5</ele><time>2026-04-10T11:18:20.028Z</time></trkpt><trkpt lat="44.3386459" lon="7.440997"><ele>654.0</ele><time>2026-04-10T11:18:21.024Z</time></trkpt><trkpt lat="44.3386053" lon="7.4411248"><ele>654.0</ele><time>2026-04-10T11:18:22.026Z</time></trkpt><trkpt lat="44.3385727" lon="7.4412286"><ele>654.0</ele><time>2026-04-10T11:18:23.028Z</time></trkpt><trkpt lat="44.3384933" lon="7.4413366"><ele>654.0</ele><time>2026-04-10T11:18:25.031Z</time></trkpt><trkpt lat="44.3383632" lon="7.4413297"><ele>654.0</ele><time>2026-04-10T11:18:27.027Z</time></trkpt><trkpt lat="44.3382745" lon="7.4412922"><ele>654.0</ele><time>2026-04-10T11:18:28.039Z</time></trkpt><trkpt lat="44.3381858" lon="7.4412782"><ele>654.0</ele><time>2026-04-10T11:18:29.025Z</time></trkpt><trkpt lat="44.3380927" lon="7.441269"><ele>654.0</ele><time>2026-04-10T11:18:30.034Z</time></trkpt><trkpt lat="44.337992" lon="7.4412421"><ele>654.0</ele><time>2026-04-10T11:18:31.023Z</time></trkpt><trkpt lat="44.337897" lon="7.4412067"><ele>654.0</ele><time>2026-04-10T11:18:32.03Z</time></trkpt><trkpt lat="44.3378095" lon="7.4411578"><ele>654.0</ele><time>2026-04-10T11:18:33.028Z</time></trkpt><trkpt lat="44.3377438" lon="7.4410931"><ele>654.2</ele><time>2026-04-10T11:18:34.028Z</time></trkpt><trkpt lat="44.3376966" lon="7.440994"><ele>654.4000000000001</ele><time>2026-04-10T11:18:35.025Z</time></trkpt><trkpt lat="44.3376859" lon="7.4408742"><ele>654.6</ele><time>2026-04-10T11:18:36.033Z</time></trkpt><trkpt lat="44.3376941" lon="7.4407412"><ele>654.8</ele><time>2026-04-10T11:18:37.025Z</time></trkpt><trkpt lat="44.3376932" lon="7.4405792"><ele>655.0</ele><time>2026-04-10T11:18:38.027Z</time></trkpt><trkpt lat="44.3376981" lon="7.4404062"><ele>655.0</ele><time>2026-04-10T11:18:39.042Z</time></trkpt><trkpt lat="44.3376946" lon="7.4402573"><ele>655.0</ele><time>2026-04-10T11:18:40.032Z</time></trkpt><trkpt lat="44.3376953" lon="7.4401129"><ele>655.0</ele><time>2026-04-10T11:18:41.03Z</time></trkpt><trkpt lat="44.3377003" lon="7.4400173"><ele>655.0</ele><time>2026-04-10T11:18:42.028Z</time></trkpt><trkpt lat="44.3377033" lon="7.4399161"><ele>655.0</ele><time>2026-04-10T11:18:43.038Z</time></trkpt><trkpt lat="44.3377133" lon="7.4398025"><ele>655.0</ele><time>2026-04-10T11:18:44.027Z</time></trkpt><trkpt lat="44.3377184" lon="7.4397044"><ele>655.2</ele><time>2026-04-10T11:18:45.028Z</time></trkpt><trkpt lat="44.3377229" lon="7.4396161"><ele>655.4</ele><time>2026-04-10T11:18:46.032Z</time></trkpt><trkpt lat="44.337716" lon="7.4394993"><ele>655.5999999999999</ele><time>2026-04-10T11:18:48.031Z</time></trkpt><trkpt lat="44.3376538" lon="7.4393858"><ele>655.8</ele><time>2026-04-10T11:18:50.03Z</time></trkpt><trkpt lat="44.3375627" lon="7.4393225"><ele>656.0</ele><time>2026-04-10T11:18:52.034Z</time></trkpt><trkpt lat="44.3374267" lon="7.4393063"><ele>656.0</ele><time>2026-04-10T11:18:54.032Z</time></trkpt><trkpt lat="44.3373483" lon="7.4393053"><ele>656.0</ele><time>2026-04-10T11:18:55.023Z</time></trkpt><trkpt lat="44.3372726" lon="7.4393044"><ele>656.0</ele><time>2026-04-10T11:18:56.027Z</time></trkpt><trkpt lat="44.3371932" lon="7.439306"><ele>656.0</ele><time>2026-04-10T11:18:57.031Z</time></trkpt><trkpt lat="44.3371116" lon="7.439325"><ele>656.0</ele><time>2026-04-10T11:18:58.028Z</time></trkpt><trkpt lat="44.3370124" lon="7.4393459"><ele>656.0</ele><time>2026-04-10T11:18:59.034Z</time></trkpt><trkpt lat="44.3368959" lon="7.4393392"><ele>656.1999999999999</ele><time>2026-04-10T11:19:00.029Z</time></trkpt><trkpt lat="44.336779" lon="7.4393312"><ele>656.4</ele><time>2026-04-10T11:19:01.024Z</time></trkpt><trkpt lat="44.3366615" lon="7.4393008"><ele>656.6</ele><time>2026-04-10T11:19:02.025Z</time></trkpt><trkpt lat="44.3365677" lon="7.4392758"><ele>656.8</ele><time>2026-04-10T11:19:03.029Z</time></trkpt><trkpt lat="44.3364788" lon="7.4392512"><ele>657.0</ele><time>2026-04-10T11:19:04.027Z</time></trkpt><trkpt lat="44.3363913" lon="7.4392309"><ele>659.6</ele><time>2026-04-10T11:19:15.03Z</time></trkpt><trkpt lat="44.3362765" lon="7.439207"><ele>662.2</ele><time>2026-04-10T11:19:17.031Z</time></trkpt><trkpt lat="44.3362133" lon="7.4391995"><ele>664.8</ele><time>2026-04-10T11:19:18.03Z</time></trkpt><trkpt lat="44.3361226" lon="7.4391442"><ele>667.4</ele><time>2026-04-10T11:19:20.031Z</time></trkpt><trkpt lat="44.3361026" lon="7.4390317"><ele>670.0</ele><time>2026-04-10T11:19:22.034Z</time></trkpt><trkpt lat="44.3360941" lon="7.4388971"><ele>671.5</ele><time>2026-04-10T11:19:25.027Z</time></trkpt><trkpt lat="44.3360933" lon="7.4387733"><ele>673.0</ele><time>2026-04-10T11:19:27.028Z</time></trkpt><trkpt lat="44.3360935" lon="7.4386527"><ele>674.5</ele><time>2026-04-10T11:19:28.027Z</time></trkpt><trkpt lat="44.3360796" lon="7.4383305"><ele>676.0</ele><time>2026-04-10T11:19:29.025Z</time></trkpt><trkpt lat="44.3360329" lon="7.4381503"><ele>676.0</ele><time>2026-04-10T11:19:30.028Z</time></trkpt><trkpt lat="44.3360001" lon="7.4380627"><ele>676.0</ele><time>2026-04-10T11:19:32.026Z</time></trkpt><trkpt lat="44.335973" lon="7.4379185"><ele>676.0</ele><time>2026-04-10T11:19:53.03Z</time></trkpt><trkpt lat="44.3359864" lon="7.4377947"><ele>676.0</ele><time>2026-04-10T11:19:55.031Z</time></trkpt><trkpt lat="44.3360082" lon="7.4377099"><ele>676.0</ele><time>2026-04-10T11:19:57.027Z</time></trkpt><trkpt lat="44.3360117" lon="7.4375665"><ele>676.0</ele><time>2026-04-10T11:20:01.024Z</time></trkpt><trkpt lat="44.3360477" lon="7.4374296"><ele>676.5</ele><time>2026-04-10T11:20:02.025Z</time></trkpt><trkpt lat="44.3360637" lon="7.4373103"><ele>677.0</ele><time>2026-04-10T11:20:03.028Z</time></trkpt><trkpt lat="44.3360839" lon="7.4371855"><ele>677.5</ele><time>2026-04-10T11:20:05.023Z</time></trkpt><trkpt lat="44.3360921" lon="7.4370626"><ele>678.0</ele><time>2026-04-10T11:20:08.03Z</time></trkpt><trkpt lat="44.3361367" lon="7.4369557"><ele>678.5</ele><time>2026-04-10T11:20:11.031Z</time></trkpt><trkpt lat="44.3361291" lon="7.4368457"><ele>679.0</ele><time>2026-04-10T11:20:14.027Z</time></trkpt><trkpt lat="44.3360993" lon="7.4366963"><ele>679.0</ele><time>2026-04-10T11:20:16.029Z</time></trkpt><trkpt lat="44.3360558" lon="7.4365006"><ele>679.0</ele><time>2026-04-10T11:20:17.025Z</time></trkpt><trkpt lat="44.3360345" lon="7.436405"><ele>679.0</ele><time>2026-04-10T11:20:18.026Z</time></trkpt><trkpt lat="44.3360253" lon="7.4362856"><ele>679.0</ele><time>2026-04-10T11:20:22.032Z</time></trkpt><trkpt lat="44.3360875" lon="7.436204"><ele>679.0</ele><time>2026-04-10T11:20:24.027Z</time></trkpt><trkpt lat="44.3361217" lon="7.4360901"><ele>680.5</ele><time>2026-04-10T11:20:28.027Z</time></trkpt><trkpt lat="44.3361692" lon="7.4359476"><ele>682.0</ele><time>2026-04-10T11:20:29.024Z</time></trkpt><trkpt lat="44.3362587" lon="7.4353869"><ele>682.6666666666667</ele><time>2026-04-10T11:20:30.027Z</time></trkpt><trkpt lat="44.3362522" lon="7.43527"><ele>683.3333333333334</ele><time>2026-04-10T11:20:31.024Z</time></trkpt><trkpt lat="44.3362458" lon="7.4351644"><ele>684.0</ele><time>2026-04-10T11:20:32.026Z</time></trkpt><trkpt lat="44.3362412" lon="7.4350721"><ele>684.6666666666666</ele><time>2026-04-10T11:20:33.037Z</time></trkpt><trkpt lat="44.336247" lon="7.4349511"><ele>685.3333333333333</ele><time>2026-04-10T11:20:35.027Z</time></trkpt><trkpt lat="44.3362804" lon="7.4348062"><ele>686.0</ele><time>2026-04-10T11:20:37.03Z</time></trkpt><trkpt lat="44.3362801" lon="7.4347024"><ele>686.75</ele><time>2026-04-10T11:20:40.028Z</time></trkpt><trkpt lat="44.3362352" lon="7.4346068"><ele>687.5</ele><time>2026-04-10T11:20:43.026Z</time></trkpt><trkpt lat="44.3361809" lon="7.4345396"><ele>688.25</ele><time>2026-04-10T11:20:45.026Z</time></trkpt><trkpt lat="44.3359938" lon="7.4344462"><ele>689.0</ele><time>2026-04-10T11:20:47.024Z</time></trkpt><trkpt lat="44.3355279" lon="7.4341893"><ele>690.0</ele><time>2026-04-10T11:20:48.025Z</time></trkpt><trkpt lat="44.3354461" lon="7.4341293"><ele>691.0</ele><time>2026-04-10T11:20:49.025Z</time></trkpt><trkpt lat="44.3353688" lon="7.4340413"><ele>692.0</ele><time>2026-04-10T11:20:50.022Z</time></trkpt><trkpt lat="44.3353219" lon="7.4338869"><ele>693.0</ele><time>2026-04-10T11:20:51.039Z</time></trkpt><trkpt lat="44.3352728" lon="7.433742"><ele>694.0</ele><time>2026-04-10T11:20:52.027Z</time></trkpt><trkpt lat="44.3352325" lon="7.4336342"><ele>694.0</ele><time>2026-04-10T11:20:53.027Z</time></trkpt><trkpt lat="44.3351729" lon="7.4335499"><ele>694.0</ele><time>2026-04-10T11:20:54.028Z</time></trkpt><trkpt lat="44.3351035" lon="7.4335032"><ele>694.0</ele><time>2026-04-10T11:20:55.026Z</time></trkpt><trkpt lat="44.3350243" lon="7.4334872"><ele>694.0</ele><time>2026-04-10T11:20:56.028Z</time></trkpt><trkpt lat="44.3349342" lon="7.433462"><ele>694.0</ele><time>2026-04-10T11:20:57.03Z</time></trkpt><trkpt lat="44.334857" lon="7.4334361"><ele>694.0</ele><time>2026-04-10T11:20:58.026Z</time></trkpt><trkpt lat="44.3347909" lon="7.4334245"><ele>694.0</ele><time>2026-04-10T11:20:59.031Z</time></trkpt><trkpt lat="44.3346872" lon="7.4333636"><ele>694.0</ele><time>2026-04-10T11:21:01.033Z</time></trkpt><trkpt lat="44.3346636" lon="7.4332263"><ele>694.0</ele><time>2026-04-10T11:21:03.03Z</time></trkpt><trkpt lat="44.3346837" lon="7.433124"><ele>694.0</ele><time>2026-04-10T11:21:04.034Z</time></trkpt><trkpt lat="44.3347054" lon="7.4329764"><ele>694.0</ele><time>2026-04-10T11:21:05.032Z</time></trkpt><trkpt lat="44.3347341" lon="7.432801"><ele>694.0</ele><time>2026-04-10T11:21:06.03Z</time></trkpt><trkpt lat="44.3347669" lon="7.4326099"><ele>694.0</ele><time>2026-04-10T11:21:07.023Z</time></trkpt><trkpt lat="44.3347966" lon="7.4324098"><ele>694.0</ele><time>2026-04-10T11:21:08.024Z</time></trkpt><trkpt lat="44.3348267" lon="7.4322114"><ele>694.0</ele><time>2026-04-10T11:21:09.027Z</time></trkpt><trkpt lat="44.3348564" lon="7.4320125"><ele>694.25</ele><time>2026-04-10T11:21:10.027Z</time></trkpt><trkpt lat="44.3348908" lon="7.4318107"><ele>694.5</ele><time>2026-04-10T11:21:11.023Z</time></trkpt><trkpt lat="44.3349268" lon="7.4316118"><ele>694.75</ele><time>2026-04-10T11:21:12.027Z</time></trkpt><trkpt lat="44.33496" lon="7.4314079"><ele>695.0</ele><time>2026-04-10T11:21:13.029Z</time></trkpt><trkpt lat="44.3349914" lon="7.4311977"><ele>695.3333333333333</ele><time>2026-04-10T11:21:14.024Z</time></trkpt><trkpt lat="44.3350271" lon="7.4309789"><ele>695.6666666666666</ele><time>2026-04-10T11:21:15.03Z</time></trkpt><trkpt lat="44.3350643" lon="7.4307479"><ele>696.0</ele><time>2026-04-10T11:21:16.025Z</time></trkpt><trkpt lat="44.335104" lon="7.4305114"><ele>696.6666666666666</ele><time>2026-04-10T11:21:17.028Z</time></trkpt><trkpt lat="44.3351434" lon="7.4302718"><ele>697.3333333333333</ele><time>2026-04-10T11:21:18.026Z</time></trkpt><trkpt lat="44.3351823" lon="7.4300238"><ele>698.0</ele><time>2026-04-10T11:21:19.027Z</time></trkpt><trkpt lat="44.3352177" lon="7.4297748"><ele>698.0</ele><time>2026-04-10T11:21:20.032Z</time></trkpt><trkpt lat="44.3352469" lon="7.4295189"><ele>698.0</ele><time>2026-04-10T11:21:21.031Z</time></trkpt><trkpt lat="44.3352577" lon="7.4292527"><ele>698.0</ele><time>2026-04-10T11:21:22.024Z</time></trkpt><trkpt lat="44.3352468" lon="7.4289863"><ele>697.6666666666666</ele><time>2026-04-10T11:21:23.029Z</time></trkpt><trkpt lat="44.3352266" lon="7.4287179"><ele>697.3333333333334</ele><time>2026-04-10T11:21:24.028Z</time></trkpt><trkpt lat="44.3351949" lon="7.4284491"><ele>697.0</ele><time>2026-04-10T11:21:25.025Z</time></trkpt><trkpt lat="44.3351602" lon="7.4281821"><ele>697.0</ele><time>2026-04-10T11:21:26.026Z</time></trkpt><trkpt lat="44.3351279" lon="7.4279158"><ele>697.0</ele><time>2026-04-10T11:21:27.028Z</time></trkpt><trkpt lat="44.3350949" lon="7.4276488"><ele>697.0</ele><time>2026-04-10T11:21:28.025Z</time></trkpt><trkpt lat="44.3350623" lon="7.4273902"><ele>697.6666666666667</ele><time>2026-04-10T11:21:29.026Z</time></trkpt><trkpt lat="44.3350291" lon="7.4271271"><ele>698.3333333333334</ele><time>2026-04-10T11:21:30.025Z</time></trkpt><trkpt lat="44.3349978" lon="7.4268625"><ele>699.0</ele><time>2026-04-10T11:21:31.028Z</time></trkpt><trkpt lat="44.3349653" lon="7.4266"><ele>699.0</ele><time>2026-04-10T11:21:32.031Z</time></trkpt><trkpt lat="44.3349293" lon="7.4263393"><ele>699.0</ele><time>2026-04-10T11:21:33.024Z</time></trkpt><trkpt lat="44.3348927" lon="7.4260737"><ele>699.0</ele><time>2026-04-10T11:21:34.028Z</time></trkpt><trkpt lat="44.3348603" lon="7.4258125"><ele>699.0</ele><time>2026-04-10T11:21:35.025Z</time></trkpt><trkpt lat="44.3348282" lon="7.4255496"><ele>699.0</ele><time>2026-04-10T11:21:36.034Z</time></trkpt><trkpt lat="44.3347966" lon="7.4252816"><ele>699.0</ele><time>2026-04-10T11:21:37.028Z</time></trkpt><trkpt lat="44.3347659" lon="7.4250211"><ele>699.0</ele><time>2026-04-10T11:21:38.026Z</time></trkpt><trkpt lat="44.3347341" lon="7.4247589"><ele>699.0</ele><time>2026-04-10T11:21:39.025Z</time></trkpt><trkpt lat="44.334698" lon="7.4244953"><ele>699.0</ele><time>2026-04-10T11:21:40.033Z</time></trkpt><trkpt lat="44.3346676" lon="7.4242327"><ele>701.0</ele><time>2026-04-10T11:21:41.024Z</time></trkpt><trkpt lat="44.3346351" lon="7.423972"><ele>703.0</ele><time>2026-04-10T11:21:42.034Z</time></trkpt><trkpt lat="44.3345993" lon="7.4237082"><ele>705.0</ele><time>2026-04-10T11:21:43.024Z</time></trkpt><trkpt lat="44.3345643" lon="7.4234424"><ele>705.0</ele><time>2026-04-10T11:21:44.025Z</time></trkpt><trkpt lat="44.3345286" lon="7.4231723"><ele>705.0</ele><time>2026-04-10T11:21:45.027Z</time></trkpt><trkpt lat="44.3344959" lon="7.4228979"><ele>705.0</ele><time>2026-04-10T11:21:46.028Z</time></trkpt><trkpt lat="44.3344572" lon="7.4226257"><ele>704.3333333333334</ele><time>2026-04-10T11:21:47.032Z</time></trkpt><trkpt lat="44.3344343" lon="7.4223492"><ele>703.6666666666667</ele><time>2026-04-10T11:21:48.026Z</time></trkpt><trkpt lat="44.3343908" lon="7.4220614"><ele>703.0</ele><time>2026-04-10T11:21:49.025Z</time></trkpt><trkpt lat="44.3343518" lon="7.4217918"><ele>702.6666666666667</ele><time>2026-04-10T11:21:50.029Z</time></trkpt><trkpt lat="44.3343122" lon="7.421542"><ele>702.3333333333334</ele><time>2026-04-10T11:21:51.027Z</time></trkpt><trkpt lat="44.3342762" lon="7.4213065"><ele>702.0</ele><time>2026-04-10T11:21:52.026Z</time></trkpt><trkpt lat="44.3342463" lon="7.421072"><ele>700.3333333333334</ele><time>2026-04-10T11:21:53.027Z</time></trkpt><trkpt lat="44.3342209" lon="7.4208469"><ele>698.6666666666667</ele><time>2026-04-10T11:21:54.024Z</time></trkpt><trkpt lat="44.3342056" lon="7.4206279"><ele>697.0</ele><time>2026-04-10T11:21:55.025Z</time></trkpt><trkpt lat="44.3342105" lon="7.4204089"><ele>695.0</ele><time>2026-04-10T11:21:56.029Z</time></trkpt><trkpt lat="44.3342496" lon="7.4201895"><ele>693.0</ele><time>2026-04-10T11:21:57.031Z</time></trkpt><trkpt lat="44.3343117" lon="7.4199753"><ele>691.0</ele><time>2026-04-10T11:21:58.027Z</time></trkpt><trkpt lat="44.3343978" lon="7.4197823"><ele>688.6666666666667</ele><time>2026-04-10T11:21:59.027Z</time></trkpt><trkpt lat="44.3345096" lon="7.4196032"><ele>686.3333333333334</ele><time>2026-04-10T11:22:00.03Z</time></trkpt><trkpt lat="44.3346503" lon="7.4194505"><ele>684.0</ele><time>2026-04-10T11:22:01.026Z</time></trkpt><trkpt lat="44.3348094" lon="7.4193156"><ele>683.3333333333334</ele><time>2026-04-10T11:22:02.029Z</time></trkpt><trkpt lat="44.3349816" lon="7.4191908"><ele>682.6666666666667</ele><time>2026-04-10T11:22:03.028Z</time></trkpt><trkpt lat="44.3351553" lon="7.419061"><ele>682.0</ele><time>2026-04-10T11:22:04.025Z</time></trkpt><trkpt lat="44.3353229" lon="7.4189287"><ele>680.6666666666667</ele><time>2026-04-10T11:22:05.03Z</time></trkpt><trkpt lat="44.3354926" lon="7.4188013"><ele>679.3333333333334</ele><time>2026-04-10T11:22:06.028Z</time></trkpt><trkpt lat="44.3356598" lon="7.418664"><ele>678.0</ele><time>2026-04-10T11:22:07.026Z</time></trkpt><trkpt lat="44.3358221" lon="7.4185264"><ele>678.0</ele><time>2026-04-10T11:22:08.029Z</time></trkpt><trkpt lat="44.3359608" lon="7.4183662"><ele>678.0</ele><time>2026-04-10T11:22:09.023Z</time></trkpt><trkpt lat="44.3360854" lon="7.4181728"><ele>678.0</ele><time>2026-04-10T11:22:10.025Z</time></trkpt><trkpt lat="44.3361911" lon="7.4179507"><ele>674.3333333333334</ele><time>2026-04-10T11:22:11.037Z</time></trkpt><trkpt lat="44.3362786" lon="7.417714"><ele>670.6666666666667</ele><time>2026-04-10T11:22:12.031Z</time></trkpt><trkpt lat="44.3363626" lon="7.4174653"><ele>667.0</ele><time>2026-04-10T11:22:13.025Z</time></trkpt><trkpt lat="44.336442" lon="7.4172203"><ele>666.0</ele><time>2026-04-10T11:22:14.033Z</time></trkpt><trkpt lat="44.3365217" lon="7.4169726"><ele>665.0</ele><time>2026-04-10T11:22:15.026Z</time></trkpt><trkpt lat="44.336597" lon="7.4167318"><ele>664.0</ele><time>2026-04-10T11:22:16.032Z</time></trkpt><trkpt lat="44.3366787" lon="7.4164928"><ele>668.0</ele><time>2026-04-10T11:22:17.03Z</time></trkpt><trkpt lat="44.3367561" lon="7.4162592"><ele>672.0</ele><time>2026-04-10T11:22:18.025Z</time></trkpt><trkpt lat="44.3368329" lon="7.4160378"><ele>676.0</ele><time>2026-04-10T11:22:19.024Z</time></trkpt><trkpt lat="44.336912" lon="7.4158122"><ele>676.0</ele><time>2026-04-10T11:22:20.028Z</time></trkpt><trkpt lat="44.336989" lon="7.4155861"><ele>676.0</ele><time>2026-04-10T11:22:21.023Z</time></trkpt><trkpt lat="44.337068" lon="7.415361"><ele>676.0</ele><time>2026-04-10T11:22:22.027Z</time></trkpt><trkpt lat="44.3371465" lon="7.4151317"><ele>677.6666666666667</ele><time>2026-04-10T11:22:23.026Z</time></trkpt><trkpt lat="44.3372226" lon="7.4148956"><ele>679.3333333333334</ele><time>2026-04-10T11:22:24.029Z</time></trkpt><trkpt lat="44.3372816" lon="7.4146514"><ele>681.0</ele><time>2026-04-10T11:22:25.029Z</time></trkpt><trkpt lat="44.3373136" lon="7.4143903"><ele>681.6666666666666</ele><time>2026-04-10T11:22:26.026Z</time></trkpt><trkpt lat="44.3373117" lon="7.4141255"><ele>682.3333333333333</ele><time>2026-04-10T11:22:27.028Z</time></trkpt><trkpt lat="44.3372707" lon="7.4138674"><ele>683.0</ele><time>2026-04-10T11:22:28.03Z</time></trkpt><trkpt lat="44.3372006" lon="7.4136186"><ele>683.0</ele><time>2026-04-10T11:22:29.025Z</time></trkpt><trkpt lat="44.337104" lon="7.4133745"><ele>683.0</ele><time>2026-04-10T11:22:30.028Z</time></trkpt><trkpt lat="44.3370068" lon="7.4131204"><ele>683.0</ele><time>2026-04-10T11:22:31.024Z</time></trkpt><trkpt lat="44.3369122" lon="7.4128704"><ele>683.6666666666666</ele><time>2026-04-10T11:22:32.028Z</time></trkpt><trkpt lat="44.3368199" lon="7.4126203"><ele>684.3333333333334</ele><time>2026-04-10T11:22:33.029Z</time></trkpt><trkpt lat="44.3367308" lon="7.4123771"><ele>685.0</ele><time>2026-04-10T11:22:34.028Z</time></trkpt><trkpt lat="44.3366424" lon="7.4121289"><ele>685.6666666666667</ele><time>2026-04-10T11:22:35.027Z</time></trkpt><trkpt lat="44.3365544" lon="7.4118814"><ele>686.3333333333334</ele><time>2026-04-10T11:22:36.026Z</time></trkpt><trkpt lat="44.3364677" lon="7.4116324"><ele>687.0</ele><time>2026-04-10T11:22:37.026Z</time></trkpt><trkpt lat="44.3363762" lon="7.4113893"><ele>687.3333333333334</ele><time>2026-04-10T11:22:38.027Z</time></trkpt><trkpt lat="44.336286" lon="7.4111484"><ele>687.6666666666667</ele><time>2026-04-10T11:22:39.027Z</time></trkpt><trkpt lat="44.3361991" lon="7.4109049"><ele>688.0</ele><time>2026-04-10T11:22:40.023Z</time></trkpt><trkpt lat="44.336109" lon="7.4106627"><ele>689.0</ele><time>2026-04-10T11:22:41.026Z</time></trkpt><trkpt lat="44.3360213" lon="7.4104203"><ele>690.0</ele><time>2026-04-10T11:22:42.026Z</time></trkpt><trkpt lat="44.3359316" lon="7.4101789"><ele>691.0</ele><time>2026-04-10T11:22:43.025Z</time></trkpt><trkpt lat="44.3358347" lon="7.4099432"><ele>691.0</ele><time>2026-04-10T11:22:44.027Z</time></trkpt><trkpt lat="44.3357169" lon="7.4097249"><ele>691.0</ele><time>2026-04-10T11:22:45.027Z</time></trkpt><trkpt lat="44.3355897" lon="7.4095178"><ele>691.0</ele><time>2026-04-10T11:22:46.031Z</time></trkpt><trkpt lat="44.3354511" lon="7.4093214"><ele>691.6666666666667</ele><time>2026-04-10T11:22:47.026Z</time></trkpt><trkpt lat="44.3353134" lon="7.40912"><ele>692.3333333333334</ele><time>2026-04-10T11:22:48.029Z</time></trkpt><trkpt lat="44.335177" lon="7.4089202"><ele>693.0</ele><time>2026-04-10T11:22:49.028Z</time></trkpt><trkpt lat="44.3350407" lon="7.4087208"><ele>693.0</ele><time>2026-04-10T11:22:50.027Z</time></trkpt><trkpt lat="44.3349058" lon="7.4085228"><ele>693.0</ele><time>2026-04-10T11:22:51.029Z</time></trkpt><trkpt lat="44.3347713" lon="7.4083347"><ele>693.0</ele><time>2026-04-10T11:22:52.028Z</time></trkpt><trkpt lat="44.3346381" lon="7.4081488"><ele>693.6666666666666</ele><time>2026-04-10T11:22:53.027Z</time></trkpt><trkpt lat="44.3345111" lon="7.4079635"><ele>694.3333333333333</ele><time>2026-04-10T11:22:54.027Z</time></trkpt><trkpt lat="44.3343855" lon="7.4077783"><ele>695.0</ele><time>2026-04-10T11:22:55.025Z</time></trkpt><trkpt lat="44.3342583" lon="7.407595"><ele>695.0</ele><time>2026-04-10T11:22:56.03Z</time></trkpt><trkpt lat="44.3341419" lon="7.4074254"><ele>695.0</ele><time>2026-04-10T11:22:57.026Z</time></trkpt><trkpt lat="44.3340383" lon="7.407273"><ele>695.0</ele><time>2026-04-10T11:22:58.025Z</time></trkpt><trkpt lat="44.3339421" lon="7.4071202"><ele>695.6666666666666</ele><time>2026-04-10T11:22:59.028Z</time></trkpt><trkpt lat="44.3338475" lon="7.4069587"><ele>696.3333333333334</ele><time>2026-04-10T11:23:00.029Z</time></trkpt><trkpt lat="44.3337465" lon="7.4067859"><ele>697.0</ele><time>2026-04-10T11:23:01.028Z</time></trkpt><trkpt lat="44.3336419" lon="7.4065986"><ele>697.0</ele><time>2026-04-10T11:23:02.027Z</time></trkpt><trkpt lat="44.3335467" lon="7.4063862"><ele>697.0</ele><time>2026-04-10T11:23:03.023Z</time></trkpt><trkpt lat="44.3334681" lon="7.4061528"><ele>697.0</ele><time>2026-04-10T11:23:04.024Z</time></trkpt><trkpt lat="44.3333986" lon="7.4059021"><ele>697.3333333333334</ele><time>2026-04-10T11:23:05.027Z</time></trkpt><trkpt lat="44.333352" lon="7.4056417"><ele>697.6666666666666</ele><time>2026-04-10T11:23:06.03Z</time></trkpt><trkpt lat="44.3333146" lon="7.40539"><ele>698.0</ele><time>2026-04-10T11:23:07.027Z</time></trkpt><trkpt lat="44.333279" lon="7.4051446"><ele>698.0</ele><time>2026-04-10T11:23:08.029Z</time></trkpt><trkpt lat="44.3332482" lon="7.4049138"><ele>698.0</ele><time>2026-04-10T11:23:09.031Z</time></trkpt><trkpt lat="44.3332128" lon="7.4046852"><ele>698.0</ele><time>2026-04-10T11:23:10.027Z</time></trkpt><trkpt lat="44.3331788" lon="7.4044527"><ele>698.6666666666666</ele><time>2026-04-10T11:23:11.03Z</time></trkpt><trkpt lat="44.3331422" lon="7.4042181"><ele>699.3333333333334</ele><time>2026-04-10T11:23:12.024Z</time></trkpt><trkpt lat="44.3331059" lon="7.4039822"><ele>700.0</ele><time>2026-04-10T11:23:13.031Z</time></trkpt><trkpt lat="44.3330695" lon="7.4037427"><ele>699.6666666666667</ele><time>2026-04-10T11:23:14.026Z</time></trkpt><trkpt lat="44.3330293" lon="7.4034978"><ele>699.3333333333334</ele><time>2026-04-10T11:23:15.024Z</time></trkpt><trkpt lat="44.3329911" lon="7.4032514"><ele>699.0</ele><time>2026-04-10T11:23:16.028Z</time></trkpt><trkpt lat="44.3329525" lon="7.4029996"><ele>699.0</ele><time>2026-04-10T11:23:17.029Z</time></trkpt><trkpt lat="44.33291" lon="7.4027484"><ele>699.0</ele><time>2026-04-10T11:23:18.032Z</time></trkpt><trkpt lat="44.332872" lon="7.4024913"><ele>699.0</ele><time>2026-04-10T11:23:19.032Z</time></trkpt><trkpt lat="44.3328332" lon="7.4022244"><ele>700.0</ele><time>2026-04-10T11:23:20.028Z</time></trkpt><trkpt lat="44.3327921" lon="7.4019584"><ele>701.0</ele><time>2026-04-10T11:23:21.025Z</time></trkpt><trkpt lat="44.3327505" lon="7.4016853"><ele>702.0</ele><time>2026-04-10T11:23:22.025Z</time></trkpt><trkpt lat="44.3327087" lon="7.4014181"><ele>702.6666666666666</ele><time>2026-04-10T11:23:23.024Z</time></trkpt><trkpt lat="44.3326683" lon="7.4011492"><ele>703.3333333333333</ele><time>2026-04-10T11:23:24.025Z</time></trkpt><trkpt lat="44.3326283" lon="7.4008731"><ele>704.0</ele><time>2026-04-10T11:23:25.025Z</time></trkpt><trkpt lat="44.3325835" lon="7.4005964"><ele>705.0</ele><time>2026-04-10T11:23:26.031Z</time></trkpt><trkpt lat="44.3325418" lon="7.4003194"><ele>706.0</ele><time>2026-04-10T11:23:27.023Z</time></trkpt><trkpt lat="44.3325002" lon="7.4000434"><ele>707.0</ele><time>2026-04-10T11:23:28.028Z</time></trkpt><trkpt lat="44.3324598" lon="7.3997708"><ele>708.0</ele><time>2026-04-10T11:23:29.026Z</time></trkpt><trkpt lat="44.3324339" lon="7.399496"><ele>709.0</ele><time>2026-04-10T11:23:30.024Z</time></trkpt><trkpt lat="44.3324291" lon="7.3992247"><ele>710.0</ele><time>2026-04-10T11:23:31.025Z</time></trkpt><trkpt lat="44.3324496" lon="7.3989522"><ele>711.6666666666666</ele><time>2026-04-10T11:23:32.023Z</time></trkpt><trkpt lat="44.3324818" lon="7.3986684"><ele>713.3333333333334</ele><time>2026-04-10T11:23:33.03Z</time></trkpt><trkpt lat="44.3325026" lon="7.3983976"><ele>715.0</ele><time>2026-04-10T11:23:34.028Z</time></trkpt><trkpt lat="44.332517" lon="7.3981547"><ele>715.3333333333334</ele><time>2026-04-10T11:23:35.024Z</time></trkpt><trkpt lat="44.3325306" lon="7.3979338"><ele>715.6666666666666</ele><time>2026-04-10T11:23:36.025Z</time></trkpt><trkpt lat="44.3325484" lon="7.3977145"><ele>716.0</ele><time>2026-04-10T11:23:37.025Z</time></trkpt><trkpt lat="44.3325681" lon="7.3974994"><ele>716.0</ele><time>2026-04-10T11:23:38.025Z</time></trkpt><trkpt lat="44.3325772" lon="7.3972817"><ele>716.0</ele><time>2026-04-10T11:23:39.026Z</time></trkpt><trkpt lat="44.3325919" lon="7.3970667"><ele>716.0</ele><time>2026-04-10T11:23:40.025Z</time></trkpt><trkpt lat="44.3326082" lon="7.3968514"><ele>716.5</ele><time>2026-04-10T11:23:41.026Z</time></trkpt><trkpt lat="44.3326208" lon="7.3966327"><ele>717.0</ele><time>2026-04-10T11:23:42.025Z</time></trkpt><trkpt lat="44.3326289" lon="7.3964341"><ele>717.5</ele><time>2026-04-10T11:23:43.024Z</time></trkpt><trkpt lat="44.3326399" lon="7.3962586"><ele>718.0</ele><time>2026-04-10T11:23:44.026Z</time></trkpt><trkpt lat="44.3326526" lon="7.3961051"><ele>718.6666666666667</ele><time>2026-04-10T11:23:45.023Z</time></trkpt><trkpt lat="44.3326563" lon="7.3959763"><ele>719.3333333333334</ele><time>2026-04-10T11:23:46.025Z</time></trkpt><trkpt lat="44.3326538" lon="7.3958554"><ele>720.0</ele><time>2026-04-10T11:23:47.023Z</time></trkpt><trkpt lat="44.3326518" lon="7.3957496"><ele>720.6666666666666</ele><time>2026-04-10T11:23:48.031Z</time></trkpt><trkpt lat="44.3326545" lon="7.3956567"><ele>721.3333333333333</ele><time>2026-04-10T11:23:49.023Z</time></trkpt><trkpt lat="44.3326545" lon="7.3955064"><ele>722.0</ele><time>2026-04-10T11:23:51.025Z</time></trkpt><trkpt lat="44.3326948" lon="7.3954137"><ele>722.0</ele><time>2026-04-10T11:23:53.03Z</time></trkpt><trkpt lat="44.3327581" lon="7.3954407"><ele>722.0</ele><time>2026-04-10T11:23:55.032Z</time></trkpt><trkpt lat="44.3327755" lon="7.3955328"><ele>722.0</ele><time>2026-04-10T11:23:58.033Z</time></trkpt><trkpt lat="44.3328193" lon="7.3956045"><ele>722.0</ele><time>2026-04-10T11:24:00.03Z</time></trkpt><trkpt lat="44.3329232" lon="7.3958068"><ele>722.0</ele><time>2026-04-10T11:24:01.03Z</time></trkpt><trkpt lat="44.3329635" lon="7.3964023"><ele>720.6666666666666</ele><time>2026-04-10T11:24:02.027Z</time></trkpt><trkpt lat="44.3330144" lon="7.3966092"><ele>719.3333333333334</ele><time>2026-04-10T11:24:03.026Z</time></trkpt><trkpt lat="44.3330498" lon="7.3968129"><ele>718.0</ele><time>2026-04-10T11:24:04.027Z</time></trkpt><trkpt lat="44.3330907" lon="7.3970122"><ele>722.6666666666667</ele><time>2026-04-10T11:24:05.031Z</time></trkpt><trkpt lat="44.3330819" lon="7.3971372"><ele>727.3333333333334</ele><time>2026-04-10T11:24:06.03Z</time></trkpt><trkpt lat="44.3330846" lon="7.3972561"><ele>732.0</ele><time>2026-04-10T11:24:07.025Z</time></trkpt><trkpt lat="44.3331417" lon="7.3973794"><ele>736.6666666666666</ele><time>2026-04-10T11:24:09.025Z</time></trkpt><trkpt lat="44.3332218" lon="7.3973602"><ele>741.3333333333333</ele><time>2026-04-10T11:24:11.026Z</time></trkpt><trkpt lat="44.3332157" lon="7.3972658"><ele>746.0</ele><time>2026-04-10T11:24:12.031Z</time></trkpt><trkpt lat="44.3332194" lon="7.3971463"><ele>746.0</ele><time>2026-04-10T11:24:13.032Z</time></trkpt><trkpt lat="44.33326" lon="7.3969765"><ele>746.0</ele><time>2026-04-10T11:24:14.035Z</time></trkpt><trkpt lat="44.3332971" lon="7.3968001"><ele>746.0</ele><time>2026-04-10T11:24:15.036Z</time></trkpt><trkpt lat="44.3333503" lon="7.396644"><ele>746.0</ele><time>2026-04-10T11:24:16.028Z</time></trkpt><trkpt lat="44.333404" lon="7.3964828"><ele>745.3333333333333</ele><time>2026-04-10T11:24:17.026Z</time></trkpt><trkpt lat="44.3334551" lon="7.3962908"><ele>744.6666666666666</ele><time>2026-04-10T11:24:18.03Z</time></trkpt><trkpt lat="44.3334794" lon="7.3960777"><ele>744.0</ele><time>2026-04-10T11:24:19.028Z</time></trkpt><trkpt lat="44.3335183" lon="7.3958683"><ele>744.0</ele><time>2026-04-10T11:24:20.032Z</time></trkpt><trkpt lat="44.3335517" lon="7.3956877"><ele>744.0</ele><time>2026-04-10T11:24:21.032Z</time></trkpt><trkpt lat="44.3335868" lon="7.3955149"><ele>744.0</ele><time>2026-04-10T11:24:22.031Z</time></trkpt><trkpt lat="44.3336211" lon="7.3953486"><ele>744.0</ele><time>2026-04-10T11:24:23.028Z</time></trkpt><trkpt lat="44.3336612" lon="7.3951733"><ele>744.75</ele><time>2026-04-10T11:24:24.024Z</time></trkpt><trkpt lat="44.3336975" lon="7.3949901"><ele>745.5</ele><time>2026-04-10T11:24:25.028Z</time></trkpt><trkpt lat="44.3337475" lon="7.3948102"><ele>746.25</ele><time>2026-04-10T11:24:26.031Z</time></trkpt><trkpt lat="44.3338031" lon="7.3946239"><ele>747.0</ele><time>2026-04-10T11:24:27.051Z</time></trkpt><trkpt lat="44.3338738" lon="7.3944395"><ele>754.6666666666667</ele><time>2026-04-10T11:24:28.025Z</time></trkpt><trkpt lat="44.3339424" lon="7.3942552"><ele>762.3333333333334</ele><time>2026-04-10T11:24:29.029Z</time></trkpt><trkpt lat="44.3340136" lon="7.3940671"><ele>770.0</ele><time>2026-04-10T11:24:30.026Z</time></trkpt><trkpt lat="44.3340931" lon="7.3938769"><ele>770.6666666666667</ele><time>2026-04-10T11:24:31.03Z</time></trkpt><trkpt lat="44.3341647" lon="7.3936995"><ele>771.3333333333333</ele><time>2026-04-10T11:24:32.027Z</time></trkpt><trkpt lat="44.3342328" lon="7.3934944"><ele>772.0</ele><time>2026-04-10T11:24:33.027Z</time></trkpt><trkpt lat="44.3343032" lon="7.3932883"><ele>772.0</ele><time>2026-04-10T11:24:34.029Z</time></trkpt><trkpt lat="44.3343658" lon="7.3930878"><ele>772.0</ele><time>2026-04-10T11:24:35.033Z</time></trkpt><trkpt lat="44.3344389" lon="7.3929116"><ele>772.0</ele><time>2026-04-10T11:24:36.025Z</time></trkpt><trkpt lat="44.3345161" lon="7.3927638"><ele>772.0</ele><time>2026-04-10T11:24:37.026Z</time></trkpt><trkpt lat="44.3345894" lon="7.3926294"><ele>773.2</ele><time>2026-04-10T11:24:38.027Z</time></trkpt><trkpt lat="44.3346571" lon="7.3925118"><ele>774.4000000000001</ele><time>2026-04-10T11:24:39.028Z</time></trkpt><trkpt lat="44.3347082" lon="7.392395"><ele>775.5999999999999</ele><time>2026-04-10T11:24:40.027Z</time></trkpt><trkpt lat="44.3347293" lon="7.3922831"><ele>776.8</ele><time>2026-04-10T11:24:41.04Z</time></trkpt><trkpt lat="44.334739" lon="7.3921577"><ele>778.0</ele><time>2026-04-10T11:24:42.03Z</time></trkpt><trkpt lat="44.3346584" lon="7.3920266"><ele>780.5</ele><time>2026-04-10T11:24:43.066Z</time></trkpt><trkpt lat="44.3344943" lon="7.3919992"><ele>783.0</ele><time>2026-04-10T11:24:44.025Z</time></trkpt><trkpt lat="44.3344002" lon="7.3918875"><ele>785.5</ele><time>2026-04-10T11:24:45.026Z</time></trkpt><trkpt lat="44.3343265" lon="7.3917634"><ele>788.0</ele><time>2026-04-10T11:24:46.03Z</time></trkpt><trkpt lat="44.3342484" lon="7.391632"><ele>788.0</ele><time>2026-04-10T11:24:47.028Z</time></trkpt><trkpt lat="44.3342658" lon="7.3915179"><ele>788.0</ele><time>2026-04-10T11:24:48.029Z</time></trkpt><trkpt lat="44.3343412" lon="7.3914216"><ele>788.0</ele><time>2026-04-10T11:24:49.026Z</time></trkpt><trkpt lat="44.3345163" lon="7.3915001"><ele>788.0</ele><time>2026-04-10T11:24:51.027Z</time></trkpt><trkpt lat="44.3346593" lon="7.3915954"><ele>789.6666666666667</ele><time>2026-04-10T11:24:52.033Z</time></trkpt><trkpt lat="44.3347255" lon="7.3916062"><ele>791.3333333333334</ele><time>2026-04-10T11:24:53.03Z</time></trkpt><trkpt lat="44.3347983" lon="7.3915827"><ele>793.0</ele><time>2026-04-10T11:24:54.028Z</time></trkpt><trkpt lat="44.3348465" lon="7.3915134"><ele>794.6666666666667</ele><time>2026-04-10T11:24:55.061Z</time></trkpt><trkpt lat="44.3348868" lon="7.3914343"><ele>796.3333333333334</ele><time>2026-04-10T11:24:56.031Z</time></trkpt><trkpt lat="44.3348279" lon="7.391308"><ele>798.0</ele><time>2026-04-10T11:24:57.033Z</time></trkpt><trkpt lat="44.3347404" lon="7.3911487"><ele>795.6666666666667</ele><time>2026-04-10T11:24:58.025Z</time></trkpt><trkpt lat="44.3346711" lon="7.3909271"><ele>793.3333333333334</ele><time>2026-04-10T11:24:59.028Z</time></trkpt><trkpt lat="44.3346315" lon="7.3907311"><ele>791.0</ele><time>2026-04-10T11:25:00.029Z</time></trkpt><trkpt lat="44.3346575" lon="7.3905345"><ele>790.4</ele><time>2026-04-10T11:25:01.029Z</time></trkpt><trkpt lat="44.3346695" lon="7.3903668"><ele>789.8</ele><time>2026-04-10T11:25:02.033Z</time></trkpt><trkpt lat="44.3347224" lon="7.3902264"><ele>789.1999999999999</ele><time>2026-04-10T11:25:03.032Z</time></trkpt><trkpt lat="44.3347526" lon="7.3900794"><ele>788.5999999999999</ele><time>2026-04-10T11:25:04.026Z</time></trkpt><trkpt lat="44.3347864" lon="7.3899692"><ele>788.0</ele><time>2026-04-10T11:25:05.028Z</time></trkpt><trkpt lat="44.334831" lon="7.3898939"><ele>791.8</ele><time>2026-04-10T11:25:06.03Z</time></trkpt><trkpt lat="44.3349309" lon="7.3898937"><ele>795.5999999999999</ele><time>2026-04-10T11:25:08.031Z</time></trkpt><trkpt lat="44.3349684" lon="7.389965"><ele>799.4000000000001</ele><time>2026-04-10T11:25:09.025Z</time></trkpt><trkpt lat="44.335007" lon="7.3900815"><ele>803.2</ele><time>2026-04-10T11:25:10.028Z</time></trkpt><trkpt lat="44.3350474" lon="7.3902202"><ele>807.0</ele><time>2026-04-10T11:25:11.031Z</time></trkpt><trkpt lat="44.335088" lon="7.3903599"><ele>807.0</ele><time>2026-04-10T11:25:12.026Z</time></trkpt><trkpt lat="44.3351281" lon="7.3905004"><ele>807.0</ele><time>2026-04-10T11:25:13.026Z</time></trkpt><trkpt lat="44.3351535" lon="7.3906512"><ele>807.0</ele><time>2026-04-10T11:25:14.027Z</time></trkpt><trkpt lat="44.3351622" lon="7.3908252"><ele>807.0</ele><time>2026-04-10T11:25:15.026Z</time></trkpt><trkpt lat="44.3351936" lon="7.3909744"><ele>807.4000000000001</ele><time>2026-04-10T11:25:16.025Z</time></trkpt><trkpt lat="44.3352631" lon="7.3910786"><ele>807.8000000000001</ele><time>2026-04-10T11:25:17.024Z</time></trkpt><trkpt lat="44.335346" lon="7.391153"><ele>808.2</ele><time>2026-04-10T11:25:18.026Z</time></trkpt><trkpt lat="44.3354206" lon="7.3912264"><ele>808.6</ele><time>2026-04-10T11:25:19.04Z</time></trkpt><trkpt lat="44.3354957" lon="7.3912289"><ele>809.0</ele><time>2026-04-10T11:25:20.026Z</time></trkpt><trkpt lat="44.3355917" lon="7.3911062"><ele>815.6666666666667</ele><time>2026-04-10T11:25:21.027Z</time></trkpt><trkpt lat="44.3356753" lon="7.3908802"><ele>822.3333333333333</ele><time>2026-04-10T11:25:22.028Z</time></trkpt><trkpt lat="44.3357511" lon="7.3907305"><ele>829.0</ele><time>2026-04-10T11:25:23.025Z</time></trkpt><trkpt lat="44.3358265" lon="7.3905586"><ele>828.25</ele><time>2026-04-10T11:25:24.027Z</time></trkpt><trkpt lat="44.3358928" lon="7.3904188"><ele>827.5</ele><time>2026-04-10T11:25:25.029Z</time></trkpt><trkpt lat="44.3359724" lon="7.3902758"><ele>826.75</ele><time>2026-04-10T11:25:26.026Z</time></trkpt><trkpt lat="44.3360653" lon="7.390151"><ele>826.0</ele><time>2026-04-10T11:25:27.027Z</time></trkpt><trkpt lat="44.336162" lon="7.3900255"><ele>826.0</ele><time>2026-04-10T11:25:28.028Z</time></trkpt><trkpt lat="44.3363067" lon="7.3899372"><ele>826.0</ele><time>2026-04-10T11:25:29.026Z</time></trkpt><trkpt lat="44.3364618" lon="7.3898438"><ele>826.0</ele><time>2026-04-10T11:25:30.025Z</time></trkpt><trkpt lat="44.336605" lon="7.3897308"><ele>827.0</ele><time>2026-04-10T11:25:31.023Z</time></trkpt><trkpt lat="44.3367435" lon="7.3896264"><ele>828.0</ele><time>2026-04-10T11:25:32.034Z</time></trkpt><trkpt lat="44.3368758" lon="7.3895376"><ele>829.0</ele><time>2026-04-10T11:25:33.025Z</time></trkpt><trkpt lat="44.3370307" lon="7.3894814"><ele>829.0</ele><time>2026-04-10T11:25:34.025Z</time></trkpt><trkpt lat="44.3371635" lon="7.389433"><ele>829.0</ele><time>2026-04-10T11:25:35.026Z</time></trkpt><trkpt lat="44.3373121" lon="7.3894064"><ele>829.0</ele><time>2026-04-10T11:25:36.031Z</time></trkpt><trkpt lat="44.3374477" lon="7.3894064"><ele>829.0</ele><time>2026-04-10T11:25:37.03Z</time></trkpt><trkpt lat="44.337593" lon="7.3894081"><ele>835.0</ele><time>2026-04-10T11:25:38.028Z</time></trkpt><trkpt lat="44.337752" lon="7.389428"><ele>841.0</ele><time>2026-04-10T11:25:39.026Z</time></trkpt><trkpt lat="44.3379131" lon="7.3894247"><ele>847.0</ele><time>2026-04-10T11:25:40.027Z</time></trkpt><trkpt lat="44.3380929" lon="7.3893755"><ele>851.6666666666666</ele><time>2026-04-10T11:25:41.03Z</time></trkpt><trkpt lat="44.3382698" lon="7.3893212"><ele>856.3333333333333</ele><time>2026-04-10T11:25:42.027Z</time></trkpt><trkpt lat="44.3384256" lon="7.3892789"><ele>861.0</ele><time>2026-04-10T11:25:43.029Z</time></trkpt><trkpt lat="44.3385898" lon="7.3892477"><ele>861.0</ele><time>2026-04-10T11:25:44.034Z</time></trkpt><trkpt lat="44.3387493" lon="7.3892378"><ele>861.0</ele><time>2026-04-10T11:25:45.024Z</time></trkpt><trkpt lat="44.3388899" lon="7.3892146"><ele>861.0</ele><time>2026-04-10T11:25:46.032Z</time></trkpt><trkpt lat="44.3390292" lon="7.3891983"><ele>861.0</ele><time>2026-04-10T11:25:47.03Z</time></trkpt><trkpt lat="44.3391417" lon="7.3891771"><ele>863.1999999999999</ele><time>2026-04-10T11:25:48.028Z</time></trkpt><trkpt lat="44.3392585" lon="7.389172"><ele>865.3999999999999</ele><time>2026-04-10T11:25:49.024Z</time></trkpt><trkpt lat="44.3393351" lon="7.3891833"><ele>867.6</ele><time>2026-04-10T11:25:50.028Z</time></trkpt><trkpt lat="44.3394086" lon="7.3891954"><ele>869.8</ele><time>2026-04-10T11:25:51.03Z</time></trkpt><trkpt lat="44.3395139" lon="7.3892615"><ele>872.0</ele><time>2026-04-10T11:25:53.032Z</time></trkpt><trkpt lat="44.3395798" lon="7.3893081"><ele>872.5</ele><time>2026-04-10T11:25:55.025Z</time></trkpt><trkpt lat="44.3397184" lon="7.3894153"><ele>873.0</ele><time>2026-04-10T11:26:08.032Z</time></trkpt><trkpt lat="44.3398046" lon="7.3894573"><ele>873.5</ele><time>2026-04-10T11:26:09.032Z</time></trkpt><trkpt lat="44.339889" lon="7.3894894"><ele>874.0</ele><time>2026-04-10T11:26:10.037Z</time></trkpt><trkpt lat="44.3400155" lon="7.3895339"><ele>873.9999999999999</ele><time>2026-04-10T11:26:12.026Z</time></trkpt><trkpt lat="44.3401247" lon="7.3894651"><ele>874.0</ele><time>2026-04-10T11:26:14.027Z</time></trkpt><trkpt lat="44.3401497" lon="7.3893687"><ele>874.0</ele><time>2026-04-10T11:26:15.025Z</time></trkpt><trkpt lat="44.340214" lon="7.3893118"><ele>874.0</ele><time>2026-04-10T11:26:16.033Z</time></trkpt><trkpt lat="44.3402821" lon="7.3892683"><ele>873.9999999999999</ele><time>2026-04-10T11:26:17.028Z</time></trkpt><trkpt lat="44.3403373" lon="7.389207"><ele>874.0</ele><time>2026-04-10T11:26:18.03Z</time></trkpt><trkpt lat="44.3403676" lon="7.3891086"><ele>874.0</ele><time>2026-04-10T11:26:19.03Z</time></trkpt><trkpt lat="44.3404067" lon="7.389018"><ele>874.0000000000001</ele><time>2026-04-10T11:26:20.031Z</time></trkpt><trkpt lat="44.3404216" lon="7.3888813"><ele>874.0000000000001</ele><time>2026-04-10T11:26:21.027Z</time></trkpt><trkpt lat="44.3404723" lon="7.3887498"><ele>874.0</ele><time>2026-04-10T11:26:22.026Z</time></trkpt><trkpt lat="44.3404865" lon="7.3886202"><ele>874.0</ele><time>2026-04-10T11:26:23.032Z</time></trkpt><trkpt lat="44.340497" lon="7.3885004"><ele>877.0</ele><time>2026-04-10T11:26:24.026Z</time></trkpt><trkpt lat="44.3405497" lon="7.3883573"><ele>880.0000000000001</ele><time>2026-04-10T11:26:26.026Z</time></trkpt><trkpt lat="44.3406496" lon="7.3882307"><ele>883.0000000000001</ele><time>2026-04-10T11:26:28.022Z</time></trkpt><trkpt lat="44.3407158" lon="7.3881723"><ele>886.0</ele><time>2026-04-10T11:26:29.03Z</time></trkpt><trkpt lat="44.3407901" lon="7.3881244"><ele>889.0</ele><time>2026-04-10T11:26:30.026Z</time></trkpt><trkpt lat="44.3408882" lon="7.3880689"><ele>889.0</ele><time>2026-04-10T11:26:31.024Z</time></trkpt><trkpt lat="44.3409797" lon="7.3880159"><ele>889.0000000000001</ele><time>2026-04-10T11:26:32.027Z</time></trkpt><trkpt lat="44.3410625" lon="7.3879325"><ele>889.0000000000001</ele><time>2026-04-10T11:26:33.027Z</time></trkpt><trkpt lat="44.3411604" lon="7.3878622"><ele>889.0</ele><time>2026-04-10T11:26:34.025Z</time></trkpt><trkpt lat="44.3412453" lon="7.3877906"><ele>889.0</ele><time>2026-04-10T11:26:35.027Z</time></trkpt><trkpt lat="44.3413369" lon="7.3876988"><ele>890.5</ele><time>2026-04-10T11:26:36.031Z</time></trkpt><trkpt lat="44.3413942" lon="7.3875421"><ele>892.0</ele><time>2026-04-10T11:26:37.025Z</time></trkpt><trkpt lat="44.3414545" lon="7.3873928"><ele>893.5</ele><time>2026-04-10T11:26:38.025Z</time></trkpt><trkpt lat="44.3415146" lon="7.3872566"><ele>895.0</ele><time>2026-04-10T11:26:39.025Z</time></trkpt><trkpt lat="44.3415721" lon="7.3871255"><ele>894.9999999999999</ele><time>2026-04-10T11:26:40.028Z</time></trkpt><trkpt lat="44.3416108" lon="7.3870093"><ele>895.0</ele><time>2026-04-10T11:26:41.028Z</time></trkpt><trkpt lat="44.3416291" lon="7.386874"><ele>895.0</ele><time>2026-04-10T11:26:42.025Z</time></trkpt><trkpt lat="44.3416769" lon="7.3867936"><ele>895.0</ele><time>2026-04-10T11:26:43.028Z</time></trkpt><trkpt lat="44.3417206" lon="7.3867256"><ele>894.9999999999999</ele><time>2026-04-10T11:26:44.027Z</time></trkpt><trkpt lat="44.3417834" lon="7.3866591"><ele>895.0</ele><time>2026-04-10T11:26:45.024Z</time></trkpt><trkpt lat="44.3418444" lon="7.3866193"><ele>895.0</ele><time>2026-04-10T11:26:47.031Z</time></trkpt><trkpt lat="44.341749" lon="7.3865296"><ele>895.0</ele><time>2026-04-10T11:26:50.028Z</time></trkpt><trkpt lat="44.341604" lon="7.3864966"><ele>895.0</ele><time>2026-04-10T11:26:51.029Z</time></trkpt><trkpt lat="44.3414897" lon="7.3864644"><ele>895.0</ele><time>2026-04-10T11:26:52.033Z</time></trkpt><trkpt lat="44.3414389" lon="7.3863836"><ele>895.6</ele><time>2026-04-10T11:26:53.041Z</time></trkpt><trkpt lat="44.3413501" lon="7.3862679"><ele>896.2</ele><time>2026-04-10T11:26:55.026Z</time></trkpt><trkpt lat="44.3412557" lon="7.3862384"><ele>896.8</ele><time>2026-04-10T11:26:56.024Z</time></trkpt><trkpt lat="44.3411248" lon="7.3863109"><ele>897.4</ele><time>2026-04-10T11:26:58.03Z</time></trkpt><trkpt lat="44.3410621" lon="7.3863429"><ele>898.0</ele><time>2026-04-10T11:26:59.031Z</time></trkpt><trkpt lat="44.3409717" lon="7.3862893"><ele>898.0</ele><time>2026-04-10T11:27:00.031Z</time></trkpt><trkpt lat="44.3408964" lon="7.386244"><ele>898.0</ele><time>2026-04-10T11:27:01.031Z</time></trkpt><trkpt lat="44.3408067" lon="7.3861433"><ele>898.0</ele><time>2026-04-10T11:27:02.026Z</time></trkpt><trkpt lat="44.3407224" lon="7.3860599"><ele>898.0</ele><time>2026-04-10T11:27:03.035Z</time></trkpt><trkpt lat="44.3406109" lon="7.3859231"><ele>898.0</ele><time>2026-04-10T11:27:04.025Z</time></trkpt><trkpt lat="44.340573" lon="7.3858038"><ele>897.5</ele><time>2026-04-10T11:27:05.025Z</time></trkpt><trkpt lat="44.3405009" lon="7.3856876"><ele>897.0</ele><time>2026-04-10T11:27:06.027Z</time></trkpt><trkpt lat="44.3404347" lon="7.3855351"><ele>896.5</ele><time>2026-04-10T11:27:07.022Z</time></trkpt><trkpt lat="44.340364" lon="7.3853552"><ele>896.0</ele><time>2026-04-10T11:27:08.028Z</time></trkpt><trkpt lat="44.3403085" lon="7.385172"><ele>896.0</ele><time>2026-04-10T11:27:09.024Z</time></trkpt><trkpt lat="44.3402664" lon="7.3850121"><ele>896.0</ele><time>2026-04-10T11:27:10.03Z</time></trkpt><trkpt lat="44.3402122" lon="7.3848726"><ele>896.0</ele><time>2026-04-10T11:27:11.024Z</time></trkpt><trkpt lat="44.3401551" lon="7.3846893"><ele>896.0</ele><time>2026-04-10T11:27:12.026Z</time></trkpt><trkpt lat="44.3400778" lon="7.3844996"><ele>899.75</ele><time>2026-04-10T11:27:13.027Z</time></trkpt><trkpt lat="44.3400098" lon="7.3843153"><ele>903.5</ele><time>2026-04-10T11:27:14.025Z</time></trkpt><trkpt lat="44.3399414" lon="7.3841453"><ele>907.25</ele><time>2026-04-10T11:27:15.026Z</time></trkpt><trkpt lat="44.3398706" lon="7.3839864"><ele>911.0</ele><time>2026-04-10T11:27:16.025Z</time></trkpt><trkpt lat="44.3397943" lon="7.3838262"><ele>912.6666666666667</ele><time>2026-04-10T11:27:17.026Z</time></trkpt><trkpt lat="44.3397281" lon="7.3837496"><ele>914.3333333333334</ele><time>2026-04-10T11:27:18.03Z</time></trkpt><trkpt lat="44.3396987" lon="7.3836492"><ele>916.0</ele><time>2026-04-10T11:27:20.03Z</time></trkpt><trkpt lat="44.3397139" lon="7.3835451"><ele>917.6666666666667</ele><time>2026-04-10T11:27:21.03Z</time></trkpt><trkpt lat="44.3397451" lon="7.3834438"><ele>919.3333333333334</ele><time>2026-04-10T11:27:22.028Z</time></trkpt><trkpt lat="44.3398235" lon="7.3833453"><ele>921.0</ele><time>2026-04-10T11:27:23.03Z</time></trkpt><trkpt lat="44.3398767" lon="7.3832664"><ele>921.0</ele><time>2026-04-10T11:27:24.027Z</time></trkpt><trkpt lat="44.3399025" lon="7.3831829"><ele>921.0</ele><time>2026-04-10T11:27:25.024Z</time></trkpt><trkpt lat="44.3399311" lon="7.3829959"><ele>921.0</ele><time>2026-04-10T11:27:27.027Z</time></trkpt><trkpt lat="44.3398032" lon="7.382832"><ele>921.0</ele><time>2026-04-10T11:27:28.031Z</time></trkpt><trkpt lat="44.3397421" lon="7.3827065"><ele>920.5999999999999</ele><time>2026-04-10T11:27:29.032Z</time></trkpt><trkpt lat="44.3396999" lon="7.3825829"><ele>920.1999999999999</ele><time>2026-04-10T11:27:30.023Z</time></trkpt><trkpt lat="44.3396731" lon="7.3824552"><ele>919.8000000000001</ele><time>2026-04-10T11:27:31.032Z</time></trkpt><trkpt lat="44.3397171" lon="7.3823749"><ele>919.4000000000001</ele><time>2026-04-10T11:27:32.03Z</time></trkpt><trkpt lat="44.3397648" lon="7.3822681"><ele>919.0</ele><time>2026-04-10T11:27:33.032Z</time></trkpt><trkpt lat="44.3398423" lon="7.3821322"><ele>917.3333333333333</ele><time>2026-04-10T11:27:34.029Z</time></trkpt><trkpt lat="44.3399051" lon="7.3820356"><ele>915.6666666666666</ele><time>2026-04-10T11:27:35.033Z</time></trkpt><trkpt lat="44.3399712" lon="7.3819592"><ele>914.0</ele><time>2026-04-10T11:27:36.029Z</time></trkpt><trkpt lat="44.340065" lon="7.3818863"><ele>912.3333333333333</ele><time>2026-04-10T11:27:37.024Z</time></trkpt><trkpt lat="44.3401163" lon="7.3818054"><ele>910.6666666666666</ele><time>2026-04-10T11:27:38.034Z</time></trkpt><trkpt lat="44.3401269" lon="7.3817172"><ele>909.0</ele><time>2026-04-10T11:27:39.03Z</time></trkpt><trkpt lat="44.3401363" lon="7.3816135"><ele>909.0</ele><time>2026-04-10T11:27:40.028Z</time></trkpt><trkpt lat="44.3401651" lon="7.3815221"><ele>909.0000000000001</ele><time>2026-04-10T11:27:41.033Z</time></trkpt><trkpt lat="44.3402513" lon="7.3814441"><ele>909.0000000000001</ele><time>2026-04-10T11:27:42.027Z</time></trkpt><trkpt lat="44.3403286" lon="7.3813831"><ele>909.0</ele><time>2026-04-10T11:27:43.028Z</time></trkpt><trkpt lat="44.340418" lon="7.3813532"><ele>909.0</ele><time>2026-04-10T11:27:44.027Z</time></trkpt><trkpt lat="44.3405267" lon="7.3813558"><ele>908.6</ele><time>2026-04-10T11:27:45.025Z</time></trkpt><trkpt lat="44.3406247" lon="7.3813457"><ele>908.2</ele><time>2026-04-10T11:27:46.026Z</time></trkpt><trkpt lat="44.3407224" lon="7.3813262"><ele>907.8000000000001</ele><time>2026-04-10T11:27:47.026Z</time></trkpt><trkpt lat="44.3407914" lon="7.381277"><ele>907.4000000000001</ele><time>2026-04-10T11:27:48.031Z</time></trkpt><trkpt lat="44.340887" lon="7.3812115"><ele>907.0</ele><time>2026-04-10T11:27:49.025Z</time></trkpt><trkpt lat="44.3409854" lon="7.3811448"><ele>907.0</ele><time>2026-04-10T11:27:50.027Z</time></trkpt><trkpt lat="44.3411091" lon="7.3811164"><ele>907.0</ele><time>2026-04-10T11:27:51.027Z</time></trkpt><trkpt lat="44.3412125" lon="7.3811118"><ele>907.0</ele><time>2026-04-10T11:27:52.026Z</time></trkpt><trkpt lat="44.341345" lon="7.381101"><ele>907.0</ele><time>2026-04-10T11:27:53.024Z</time></trkpt><trkpt lat="44.3414443" lon="7.3810423"><ele>910.25</ele><time>2026-04-10T11:27:54.024Z</time></trkpt><trkpt lat="44.341523" lon="7.3809139"><ele>913.5</ele><time>2026-04-10T11:27:56.032Z</time></trkpt><trkpt lat="44.3416133" lon="7.3807807"><ele>916.75</ele><time>2026-04-10T11:27:58.026Z</time></trkpt><trkpt lat="44.3417112" lon="7.380781"><ele>920.0</ele><time>2026-04-10T11:27:59.027Z</time></trkpt><trkpt lat="44.3418115" lon="7.3807691"><ele>920.0</ele><time>2026-04-10T11:28:00.026Z</time></trkpt><trkpt lat="44.3419295" lon="7.3808687"><ele>920.0</ele><time>2026-04-10T11:28:01.024Z</time></trkpt><trkpt lat="44.3420093" lon="7.3808973"><ele>920.0</ele><time>2026-04-10T11:28:02.03Z</time></trkpt><trkpt lat="44.3420945" lon="7.3808955"><ele>920.0</ele><time>2026-04-10T11:28:03.028Z</time></trkpt><trkpt lat="44.3421814" lon="7.3808762"><ele>920.0</ele><time>2026-04-10T11:28:04.023Z</time></trkpt><trkpt lat="44.3422391" lon="7.3807689"><ele>918.5000000000001</ele><time>2026-04-10T11:28:05.026Z</time></trkpt><trkpt lat="44.3423043" lon="7.3807044"><ele>917.0</ele><time>2026-04-10T11:28:06.026Z</time></trkpt><trkpt lat="44.3423649" lon="7.3805753"><ele>915.5</ele><time>2026-04-10T11:28:08.03Z</time></trkpt><trkpt lat="44.3423578" lon="7.3804785"><ele>914.0</ele><time>2026-04-10T11:28:09.026Z</time></trkpt><trkpt lat="44.3423377" lon="7.380368"><ele>912.5000000000001</ele><time>2026-04-10T11:28:10.027Z</time></trkpt><trkpt lat="44.342319" lon="7.3802543"><ele>911.0</ele><time>2026-04-10T11:28:11.031Z</time></trkpt><trkpt lat="44.3422006" lon="7.380019"><ele>911.0</ele><time>2026-04-10T11:28:12.033Z</time></trkpt><trkpt lat="44.3421571" lon="7.379866"><ele>910.9999999999999</ele><time>2026-04-10T11:28:13.025Z</time></trkpt><trkpt lat="44.3421252" lon="7.3797148"><ele>910.9999999999999</ele><time>2026-04-10T11:28:14.035Z</time></trkpt><trkpt lat="44.3421104" lon="7.3795918"><ele>911.0</ele><time>2026-04-10T11:28:15.028Z</time></trkpt><trkpt lat="44.342183" lon="7.3795323"><ele>911.0</ele><time>2026-04-10T11:28:17.026Z</time></trkpt><trkpt lat="44.3422739" lon="7.3795173"><ele>911.1999999999999</ele><time>2026-04-10T11:28:18.024Z</time></trkpt><trkpt lat="44.3423544" lon="7.3794541"><ele>911.3999999999999</ele><time>2026-04-10T11:28:19.03Z</time></trkpt><trkpt lat="44.3424144" lon="7.3793564"><ele>911.6</ele><time>2026-04-10T11:28:21.028Z</time></trkpt><trkpt lat="44.3423418" lon="7.3792498"><ele>911.8</ele><time>2026-04-10T11:28:23.026Z</time></trkpt><trkpt lat="44.3421979" lon="7.3791794"><ele>912.0</ele><time>2026-04-10T11:28:24.033Z</time></trkpt><trkpt lat="44.3421218" lon="7.3790895"><ele>912.0</ele><time>2026-04-10T11:28:25.029Z</time></trkpt><trkpt lat="44.3420765" lon="7.3790176"><ele>911.9999999999999</ele><time>2026-04-10T11:28:26.029Z</time></trkpt><trkpt lat="44.3420412" lon="7.3789434"><ele>912.0</ele><time>2026-04-10T11:28:27.028Z</time></trkpt><trkpt lat="44.3420017" lon="7.378861"><ele>912.0</ele><time>2026-04-10T11:28:30.026Z</time></trkpt><trkpt lat="44.3419679" lon="7.3787492"><ele>911.9999999999999</ele><time>2026-04-10T11:28:33.03Z</time></trkpt><trkpt lat="44.3419276" lon="7.3786732"><ele>912.0</ele><time>2026-04-10T11:28:36.032Z</time></trkpt><trkpt lat="44.3418597" lon="7.3785938"><ele>912.0</ele><time>2026-04-10T11:28:39.027Z</time></trkpt><trkpt lat="44.3418145" lon="7.3784972"><ele>913.0</ele><time>2026-04-10T11:28:41.032Z</time></trkpt><trkpt lat="44.341741" lon="7.3782354"><ele>914.0</ele><time>2026-04-10T11:28:43.026Z</time></trkpt><trkpt lat="44.3415229" lon="7.37781"><ele>915.4000000000001</ele><time>2026-04-10T11:28:44.026Z</time></trkpt><trkpt lat="44.3415368" lon="7.3776801"><ele>916.8000000000001</ele><time>2026-04-10T11:28:46.03Z</time></trkpt><trkpt lat="44.3414671" lon="7.3776689"><ele>918.1999999999999</ele><time>2026-04-10T11:28:48.03Z</time></trkpt><trkpt lat="44.3413368" lon="7.3777344"><ele>919.5999999999999</ele><time>2026-04-10T11:28:50.024Z</time></trkpt><trkpt lat="44.3412489" lon="7.3777916"><ele>921.0</ele><time>2026-04-10T11:28:51.033Z</time></trkpt><trkpt lat="44.3411793" lon="7.3778419"><ele>916.6666666666666</ele><time>2026-04-10T11:28:52.037Z</time></trkpt><trkpt lat="44.3411158" lon="7.3778981"><ele>912.3333333333333</ele><time>2026-04-10T11:28:53.025Z</time></trkpt><trkpt lat="44.3410395" lon="7.3780181"><ele>908.0</ele><time>2026-04-10T11:28:55.026Z</time></trkpt><trkpt lat="44.3409753" lon="7.3780452"><ele>903.6666666666666</ele><time>2026-04-10T11:28:56.027Z</time></trkpt><trkpt lat="44.3409152" lon="7.3779949"><ele>899.3333333333333</ele><time>2026-04-10T11:28:57.027Z</time></trkpt><trkpt lat="44.3408703" lon="7.3779314"><ele>895.0</ele><time>2026-04-10T11:29:01.033Z</time></trkpt><trkpt lat="44.3408289" lon="7.3778144"><ele>886.3333333333333</ele><time>2026-04-10T11:29:04.028Z</time></trkpt><trkpt lat="44.3405309" lon="7.3775077"><ele>877.6666666666667</ele><time>2026-04-10T11:29:05.028Z</time></trkpt><trkpt lat="44.3404608" lon="7.3774719"><ele>869.0</ele><time>2026-04-10T11:29:06.024Z</time></trkpt><trkpt lat="44.3404044" lon="7.3774271"><ele>869.0</ele><time>2026-04-10T11:29:07.022Z</time></trkpt><trkpt lat="44.3403433" lon="7.3773592"><ele>869.0</ele><time>2026-04-10T11:29:08.031Z</time></trkpt><trkpt lat="44.3402912" lon="7.3772882"><ele>869.0</ele><time>2026-04-10T11:29:09.03Z</time></trkpt><trkpt lat="44.3402044" lon="7.3771178"><ele>879.0</ele><time>2026-04-10T11:29:11.025Z</time></trkpt></trkseg></trk></gpx>